createdAt,value
2022-10-18T00:00:44.207Z,93.76
2022-10-18T00:03:10.601Z,93.97
2022-10-18T00:05:36.981Z,94.01
2022-10-18T00:08:03.459Z,93.96
2022-10-18T00:10:29.898Z,93.75
2022-10-18T00:12:56.274Z,93.76
2022-10-18T00:15:22.644Z,93.97
2022-10-18T00:17:49.124Z,93.94
2022-10-18T00:20:15.584Z,93.98
2022-10-18T00:22:42.146Z,94.07
2022-10-18T00:25:09.611Z,93.85
2022-10-18T00:27:36.012Z,93.83
2022-10-18T00:30:02.438Z,93.64
2022-10-18T00:32:29.247Z,93.49
2022-10-18T00:34:55.934Z,93.37
2022-10-18T00:37:22.337Z,93.15
2022-10-18T00:39:48.792Z,93.23
2022-10-18T00:42:19.473Z,92.93
2022-10-18T00:44:45.724Z,92.96
2022-10-18T00:47:13.289Z,92.92
2022-10-18T00:49:42.621Z,92.77
2022-10-18T00:52:22.401Z,93.36
2022-10-18T00:54:49.927Z,93.45
2022-10-18T00:57:16.709Z,93.98
2022-10-18T00:59:43.233Z,93.96
2022-10-18T01:02:09.759Z,94.14
2022-10-18T01:04:36.245Z,94.19
2022-10-18T01:07:30.641Z,93.93
2022-10-18T01:10:09.727Z,93.80
2022-10-18T01:13:13.869Z,93.66
2022-10-18T01:16:20.400Z,94.06
2022-10-18T01:18:58.097Z,94.05
2022-10-18T01:21:30.149Z,93.99
2022-10-18T01:24:30.899Z,93.91
2022-10-18T01:27:25.723Z,94.31
2022-10-18T01:30:13.759Z,94.29
2022-10-18T01:32:44.362Z,94.27
2022-10-18T01:35:17.287Z,94.01
2022-10-18T01:37:45.937Z,94.01
2022-10-18T01:40:13.259Z,93.65
2022-10-18T01:42:40.189Z,93.42
2022-10-18T01:45:08.079Z,93.34
2022-10-18T01:47:35.289Z,93.43
2022-10-18T01:50:04.565Z,93.52
2022-10-18T01:52:31.565Z,94.05
2022-10-18T01:54:59.216Z,94.50
2022-10-18T01:57:41.725Z,94.09
2022-10-18T02:00:23.915Z,93.67
2022-10-18T02:03:07.014Z,94.14
2022-10-18T02:05:41.488Z,94.32
2022-10-18T02:08:22.817Z,94.66
2022-10-18T02:10:54.528Z,94.88
2022-10-18T02:13:22.784Z,94.81
2022-10-18T02:15:54.914Z,95.03
2022-10-18T02:18:25.967Z,95.03
2022-10-18T02:20:52.970Z,94.88
2022-10-18T02:23:21.749Z,94.58
2022-10-18T02:25:48.458Z,94.89
2022-10-18T02:28:14.922Z,95.18
2022-10-18T02:30:46.594Z,95.38
2022-10-18T02:33:18.049Z,95.54
2022-10-18T02:35:50.975Z,95.62
2022-10-18T02:38:18.004Z,95.41
2022-10-18T02:40:44.380Z,95.21
2022-10-18T02:43:10.727Z,95.34
2022-10-18T02:45:37.820Z,95.23
2022-10-18T02:48:04.415Z,95.56
2022-10-18T02:50:30.789Z,95.34
2022-10-18T02:52:57.169Z,95.15
2022-10-18T02:55:23.851Z,95.57
2022-10-18T02:57:50.221Z,95.05
2022-10-18T03:00:16.605Z,95.59
2022-10-18T03:02:43.002Z,95.73
2022-10-18T03:05:09.368Z,95.68
2022-10-18T03:07:35.753Z,95.66
2022-10-18T03:10:02.112Z,96.14
2022-10-18T03:12:28.533Z,96.00
2022-10-18T03:14:54.883Z,96.21
2022-10-18T03:17:23.960Z,96.24
2022-10-18T03:19:50.344Z,95.96
2022-10-18T03:22:16.752Z,95.55
2022-10-18T03:24:43.158Z,95.42
2022-10-18T03:27:09.598Z,94.85
2022-10-18T03:29:35.959Z,94.95
2022-10-18T03:32:05.110Z,95.02
2022-10-18T03:34:31.540Z,95.03
2022-10-18T03:37:00.993Z,95.32
2022-10-18T03:39:29.872Z,95.47
2022-10-18T03:41:56.329Z,95.98
2022-10-18T03:44:22.688Z,95.91
2022-10-18T03:46:49.046Z,95.35
2022-10-18T03:49:15.482Z,94.88
2022-10-18T03:51:41.857Z,94.63
2022-10-18T03:54:08.300Z,95.07
2022-10-18T03:56:34.675Z,95.03
2022-10-18T03:59:01.130Z,95.27
2022-10-18T04:01:27.542Z,95.71
2022-10-18T04:03:53.949Z,95.88
2022-10-18T04:06:20.333Z,96.10
2022-10-18T04:08:46.770Z,95.74
2022-10-18T04:11:13.209Z,95.86
2022-10-18T04:13:39.685Z,96.02
2022-10-18T04:16:06.162Z,96.12
2022-10-18T04:18:32.552Z,95.33
2022-10-18T04:20:59.064Z,94.61
2022-10-18T04:23:25.484Z,94.42
2022-10-18T04:25:51.878Z,95.22
2022-10-18T04:28:18.614Z,95.38
2022-10-18T04:30:52.307Z,94.51
2022-10-18T04:33:19.179Z,95.14
2022-10-18T04:35:46.307Z,94.82
2022-10-18T04:38:14.215Z,94.58
2022-10-18T04:40:40.582Z,94.70
2022-10-18T04:43:06.948Z,94.35
2022-10-18T04:45:33.307Z,94.70
2022-10-18T04:47:59.685Z,94.52
2022-10-18T04:50:26.118Z,94.71
2022-10-18T04:52:53.598Z,94.75
2022-10-18T04:55:20.356Z,95.02
2022-10-18T04:57:46.707Z,94.87
2022-10-18T05:00:13.432Z,94.52
2022-10-18T05:02:39.789Z,94.20
2022-10-18T05:05:08.107Z,94.43
2022-10-18T05:07:37.571Z,94.11
2022-10-18T05:10:04.526Z,94.07
2022-10-18T05:12:31.055Z,93.87
2022-10-18T05:14:57.559Z,93.90
2022-10-18T05:17:23.937Z,93.95
2022-10-18T05:19:50.336Z,94.64
2022-10-18T05:22:16.688Z,94.70
2022-10-18T05:24:43.043Z,94.29
2022-10-18T05:27:11.023Z,94.08
2022-10-18T05:29:37.405Z,93.89
2022-10-18T05:32:04.198Z,93.79
2022-10-18T05:34:31.998Z,93.50
2022-10-18T05:36:58.624Z,93.68
2022-10-18T05:39:25.028Z,93.78
2022-10-18T05:41:51.476Z,93.75
2022-10-18T05:44:17.841Z,93.72
2022-10-18T05:46:44.214Z,93.90
2022-10-18T05:49:12.041Z,93.86
2022-10-18T05:51:38.537Z,93.88
2022-10-18T05:54:04.948Z,94.17
2022-10-18T05:56:31.433Z,94.40
2022-10-18T05:58:57.987Z,94.25
2022-10-18T06:01:24.383Z,94.08
2022-10-18T06:03:50.732Z,94.11
2022-10-18T06:06:17.219Z,93.90
2022-10-18T06:08:44.129Z,93.57
2022-10-18T06:11:13.461Z,93.61
2022-10-18T06:13:43.977Z,93.52
2022-10-18T06:16:11.044Z,93.75
2022-10-18T06:18:37.741Z,93.66
2022-10-18T06:21:04.561Z,93.70
2022-10-18T06:23:30.960Z,93.74
2022-10-18T06:26:06.137Z,93.49
2022-10-18T06:28:34.866Z,93.29
2022-10-18T06:31:01.392Z,93.06
2022-10-18T06:33:27.778Z,93.20
2022-10-18T06:36:02.579Z,93.16
2022-10-18T06:38:29.560Z,93.21
2022-10-18T06:40:57.200Z,92.98
2022-10-18T06:43:24.060Z,93.07
2022-10-18T06:45:50.966Z,93.21
2022-10-18T06:51:01.013Z,92.85
2022-10-18T06:53:32.601Z,92.71
2022-10-18T06:56:04.333Z,92.66
2022-10-18T06:58:31.086Z,92.98
2022-10-18T07:00:58.073Z,92.85
2022-10-18T07:03:24.877Z,92.73
2022-10-18T07:05:51.424Z,92.70
2022-10-18T07:08:18.433Z,93.01
2022-10-18T07:10:52.993Z,92.98
2022-10-18T07:13:32.443Z,93.49
2022-10-18T07:16:00.721Z,93.25
2022-10-18T07:18:27.174Z,92.87
2022-10-18T07:20:53.549Z,93.14
2022-10-18T07:23:21.021Z,93.01
2022-10-18T07:25:47.480Z,92.98
2022-10-18T07:28:14.048Z,92.94
2022-10-18T07:30:40.472Z,92.85
2022-10-18T07:33:06.924Z,92.83
2022-10-18T07:35:33.345Z,93.03
2022-10-18T07:37:59.785Z,92.92
2022-10-18T07:40:26.294Z,92.55
2022-10-18T07:42:52.725Z,93.04
2022-10-18T07:45:19.184Z,93.09
2022-10-18T07:47:45.566Z,93.08
2022-10-18T07:50:11.920Z,93.20
2022-10-18T07:52:38.374Z,92.97
2022-10-18T07:55:04.973Z,93.04
2022-10-18T07:57:31.637Z,93.04
2022-10-18T07:59:58.233Z,93.06
2022-10-18T08:02:24.630Z,93.02
2022-10-18T08:04:50.996Z,92.91
2022-10-18T08:07:17.395Z,92.84
2022-10-18T08:09:43.826Z,93.08
2022-10-18T08:12:10.193Z,92.61
2022-10-18T08:14:36.613Z,92.97
2022-10-18T08:17:02.974Z,92.78
2022-10-18T08:19:29.605Z,92.89
2022-10-18T08:21:55.976Z,92.74
2022-10-18T08:24:22.486Z,92.76
2022-10-18T08:26:49.395Z,92.70
2022-10-18T08:29:23.843Z,92.66
2022-10-18T08:31:51.370Z,92.79
2022-10-18T08:37:03.214Z,92.62
2022-10-18T08:39:29.644Z,92.33
2022-10-18T08:42:15.039Z,91.79
2022-10-18T08:44:44.930Z,91.46
2022-10-18T08:47:35.089Z,91.32
2022-10-18T08:50:07.186Z,91.15
2022-10-18T08:52:58.605Z,89.73
2022-10-18T08:55:36.173Z,89.33
2022-10-18T08:58:05.239Z,88.52
2022-10-18T09:00:34.821Z,87.73
2022-10-18T09:03:11.196Z,85.14
2022-10-18T09:05:55.397Z,84.08
2022-10-18T09:08:43.475Z,83.25
2022-10-18T09:11:34.210Z,82.29
2022-10-18T09:14:15.380Z,81.52
2022-10-18T09:17:06.320Z,81.13
2022-10-18T09:20:05.872Z,76.71
2022-10-18T09:22:51.006Z,78.89
2022-10-18T09:25:37.968Z,77.62
2022-10-18T09:28:16.782Z,72.92
2022-10-18T09:30:57.225Z,74.56
2022-10-18T09:33:58.459Z,71.88
2022-10-18T09:36:27.948Z,72.19
2022-10-18T09:38:59.942Z,70.21
2022-10-18T09:41:42.643Z,72.30
2022-10-18T09:44:08.904Z,72.09
2022-10-18T09:46:41.152Z,70.55
2022-10-18T09:49:17.829Z,66.77
2022-10-18T09:51:45.480Z,67.18
2022-10-18T09:54:27.062Z,65.40
2022-10-18T09:57:35.540Z,63.26
2022-10-18T10:00:05.869Z,65.65
2022-10-18T10:02:32.311Z,67.03
2022-10-18T10:04:59.005Z,64.66
2022-10-18T10:07:35.212Z,63.92
2022-10-18T10:10:08.876Z,66.63
2022-10-18T10:12:40.206Z,66.12
2022-10-18T10:15:20.825Z,68.12
2022-10-18T10:18:15.993Z,64.92
2022-10-18T10:20:45.409Z,62.94
2022-10-18T10:23:29.834Z,65.31
2022-10-18T10:26:01.920Z,64.89
2022-10-18T10:28:31.898Z,63.96
2022-10-18T10:31:23.173Z,64.91
2022-10-18T10:33:59.335Z,64.05
2022-10-18T10:36:28.546Z,63.80
2022-10-18T10:39:12.085Z,64.86
2022-10-18T10:41:40.527Z,65.60
2022-10-18T10:44:15.863Z,62.84
2022-10-18T10:46:42.548Z,64.65
2022-10-18T10:49:45.269Z,64.04
2022-10-18T10:52:26.260Z,63.76
2022-10-18T10:54:52.482Z,64.17
2022-10-18T10:57:24.225Z,63.33
2022-10-18T10:59:56.970Z,63.77
2022-10-18T11:02:27.466Z,62.56
2022-10-18T11:04:55.261Z,64.13
2022-10-18T11:07:41.538Z,66.11
2022-10-18T11:10:14.136Z,65.08
2022-10-18T11:13:18.560Z,65.95
2022-10-18T11:15:52.179Z,64.76
2022-10-18T11:18:24.516Z,62.80
2022-10-18T11:21:07.837Z,62.92
2022-10-18T11:23:36.254Z,63.73
2022-10-18T11:26:11.717Z,63.62
2022-10-18T11:29:15.327Z,63.67
2022-10-18T11:31:46.026Z,62.50
2022-10-18T11:34:30.838Z,63.57
2022-10-18T11:37:27.631Z,61.40
2022-10-18T11:39:58.599Z,62.03
2022-10-18T11:42:31.172Z,61.32
2022-10-18T11:45:04.542Z,62.86
2022-10-18T11:47:37.043Z,62.42
2022-10-18T11:50:26.530Z,61.93
2022-10-18T11:53:04.828Z,62.12
2022-10-18T11:56:09.835Z,62.92
2022-10-18T11:59:13.968Z,61.28
2022-10-18T12:02:16.100Z,62.13
2022-10-18T12:04:58.552Z,61.86
2022-10-18T12:07:42.410Z,63.80
2022-10-18T12:10:13.822Z,62.49
2022-10-18T12:12:50.476Z,63.24
2022-10-18T12:15:22.067Z,60.36
2022-10-18T12:17:54.798Z,60.89
2022-10-18T12:20:27.273Z,62.27
2022-10-18T12:23:03.117Z,61.40
2022-10-18T12:25:34.159Z,61.52
2022-10-18T12:28:08.338Z,60.98
2022-10-18T12:30:42.911Z,61.63
2022-10-18T12:33:28.878Z,61.48
2022-10-18T12:36:06.641Z,61.74
2022-10-18T12:38:38.894Z,60.28
2022-10-18T12:41:05.653Z,61.13
2022-10-18T12:43:36.853Z,61.06
2022-10-18T12:46:10.726Z,61.45
2022-10-18T12:48:45.201Z,58.98
2022-10-18T12:51:20.279Z,58.31
2022-10-18T12:53:48.679Z,58.29
2022-10-18T12:56:37.846Z,59.48
2022-10-18T12:59:16.053Z,58.69
2022-10-18T13:01:51.657Z,54.75
2022-10-18T13:04:27.140Z,53.02
2022-10-18T13:07:05.593Z,54.79
2022-10-18T13:09:37.072Z,55.76
2022-10-18T13:12:09.470Z,55.31
2022-10-18T13:15:28.389Z,56.69
2022-10-18T13:18:26.334Z,58.18
2022-10-18T13:21:08.252Z,56.46
2022-10-18T13:23:55.491Z,55.32
2022-10-18T13:26:31.888Z,55.05
2022-10-18T13:29:13.618Z,56.59
2022-10-18T13:31:48.237Z,55.63
2022-10-18T13:34:32.582Z,55.66
2022-10-18T13:37:24.513Z,55.81
2022-10-18T13:39:52.414Z,56.74
2022-10-18T13:42:31.488Z,57.56
2022-10-18T13:45:32.083Z,56.35
2022-10-18T13:48:17.201Z,58.07
2022-10-18T13:50:44.579Z,57.52
2022-10-18T13:53:33.956Z,57.43
2022-10-18T13:56:26.930Z,56.81
2022-10-18T13:59:14.351Z,56.68
2022-10-18T14:02:01.276Z,55.76
2022-10-18T14:04:47.950Z,53.84
2022-10-18T14:07:18.369Z,49.90
2022-10-18T14:09:54.927Z,46.15
2022-10-18T14:12:43.718Z,44.52
2022-10-18T14:15:19.217Z,43.54
2022-10-18T14:17:55.579Z,42.13
2022-10-18T14:20:43.945Z,40.33
2022-10-18T14:23:19.225Z,40.02
2022-10-18T14:25:45.906Z,39.62
2022-10-18T14:28:31.470Z,38.09
2022-10-18T14:31:12.832Z,38.54
2022-10-18T14:33:45.592Z,37.19
2022-10-18T14:36:17.974Z,37.46
2022-10-18T14:38:55.315Z,36.37
2022-10-18T14:41:28.518Z,35.41
2022-10-18T14:44:34.729Z,35.52
2022-10-18T14:47:16.573Z,35.25
2022-10-18T14:49:44.324Z,34.80
2022-10-18T14:52:14.113Z,35.38
2022-10-18T14:54:40.680Z,35.73
2022-10-18T14:57:16.982Z,34.84
2022-10-18T14:59:46.927Z,34.73
2022-10-18T15:02:19.712Z,34.18
2022-10-18T15:04:47.398Z,35.96
2022-10-18T15:07:16.355Z,35.40
2022-10-18T15:09:43.413Z,35.74
2022-10-18T15:12:13.710Z,35.52
2022-10-18T15:14:41.262Z,36.27
2022-10-18T15:17:14.284Z,36.45
2022-10-18T15:19:54.211Z,36.20
2022-10-18T15:22:33.353Z,36.32
2022-10-18T15:25:12.471Z,36.21
2022-10-18T15:27:43.415Z,36.56
2022-10-18T15:30:21.644Z,36.48
2022-10-18T15:32:59.201Z,36.80
2022-10-18T15:35:29.482Z,38.43
2022-10-18T15:37:57.448Z,41.96
2022-10-18T15:40:23.855Z,45.50
2022-10-18T15:42:52.115Z,47.08
2022-10-18T15:45:24.571Z,49.04
2022-10-18T15:47:59.235Z,49.45
2022-10-18T15:50:51.158Z,54.04
2022-10-18T15:53:20.713Z,53.17
2022-10-18T15:56:01.072Z,54.57
2022-10-18T15:58:31.974Z,55.22
2022-10-18T16:01:00.692Z,56.56
2022-10-18T16:03:29.039Z,57.34
2022-10-18T16:06:04.550Z,58.98
2022-10-18T16:08:45.848Z,61.10
2022-10-18T16:11:19.324Z,60.82
2022-10-18T16:13:45.981Z,61.88
2022-10-18T16:16:15.109Z,62.40
2022-10-18T16:18:41.780Z,63.91
2022-10-18T16:21:16.375Z,64.97
2022-10-18T16:23:42.870Z,64.81
2022-10-18T16:26:11.394Z,65.49
2022-10-18T16:28:37.919Z,65.69
2022-10-18T16:32:06.949Z,68.29
2022-10-18T16:39:58.991Z,69.51
2022-10-18T16:42:23.398Z,69.98
2022-10-18T16:44:49.791Z,70.19
2022-10-18T16:47:16.407Z,70.63
2022-10-18T16:49:45.037Z,71.52
2022-10-18T16:52:11.451Z,72.02
2022-10-18T16:54:37.829Z,72.51
2022-10-18T16:57:04.294Z,73.04
2022-10-18T16:59:31.455Z,73.80
2022-10-18T17:01:58.011Z,74.76
2022-10-18T17:04:24.533Z,74.85
2022-10-18T17:06:51.460Z,75.42
2022-10-18T17:09:17.907Z,74.84
2022-10-18T17:11:44.458Z,74.85
2022-10-18T17:14:10.888Z,76.26
2022-10-18T17:16:38.595Z,76.31
2022-10-18T17:19:07.633Z,76.84
2022-10-18T17:21:34.236Z,77.52
2022-10-18T17:24:05.774Z,77.64
2022-10-18T17:26:33.027Z,77.43
2022-10-18T17:29:01.765Z,77.97
2022-10-18T17:31:29.468Z,78.24
2022-10-18T17:33:55.991Z,78.73
2022-10-18T17:36:22.478Z,79.15
2022-10-18T17:38:53.284Z,79.38
2022-10-18T17:41:20.284Z,79.94
2022-10-18T17:43:48.124Z,79.74
2022-10-18T17:46:14.858Z,79.53
2022-10-18T17:48:41.826Z,79.83
2022-10-18T17:51:09.606Z,79.68
2022-10-18T17:53:36.278Z,80.19
2022-10-18T17:56:03.596Z,80.41
2022-10-18T17:58:31.290Z,80.63
2022-10-18T18:00:58.541Z,80.93
2022-10-18T18:03:25.024Z,81.34
2022-10-18T18:05:51.455Z,81.73
2022-10-18T18:08:17.850Z,81.80
2022-10-18T18:10:44.346Z,82.10
2022-10-18T18:13:10.819Z,81.83
2022-10-18T18:15:37.330Z,81.74
2022-10-18T18:18:03.757Z,81.40
2022-10-18T18:20:30.195Z,81.49
2022-10-18T18:22:56.638Z,81.56
2022-10-18T18:25:23.086Z,81.94
2022-10-18T18:27:49.506Z,82.59
2022-10-18T18:30:17.692Z,82.58
2022-10-18T18:32:44.127Z,82.45
2022-10-18T18:35:10.532Z,82.47
2022-10-18T18:37:37.150Z,82.52
2022-10-18T18:40:03.936Z,82.79
2022-10-18T18:42:30.446Z,83.17
2022-10-18T18:44:56.976Z,83.35
2022-10-18T18:47:23.594Z,83.28
2022-10-18T18:49:51.502Z,83.50
2022-10-18T18:52:17.989Z,83.37
2022-10-18T18:54:44.961Z,83.26
2022-10-18T18:57:11.343Z,83.59
2022-10-18T18:59:37.741Z,84.19
2022-10-18T19:02:04.174Z,84.01
2022-10-18T19:04:30.598Z,83.91
2022-10-18T19:06:57.098Z,83.94
2022-10-18T19:09:23.923Z,84.15
2022-10-18T19:11:54.798Z,84.21
2022-10-18T19:14:23.810Z,84.38
2022-10-18T19:16:53.169Z,83.91
2022-10-18T19:19:21.915Z,84.27
2022-10-18T19:21:51.655Z,84.49
2022-10-18T19:24:19.481Z,84.46
2022-10-18T19:26:59.929Z,84.48
2022-10-18T19:29:27.634Z,84.58
2022-10-18T19:31:56.320Z,84.93
2022-10-18T19:34:24.117Z,85.47
2022-10-18T19:36:51.357Z,85.60
2022-10-18T19:39:39.742Z,85.27
2022-10-18T19:42:08.943Z,85.07
2022-10-18T19:44:36.846Z,85.16
2022-10-18T19:47:04.393Z,84.93
2022-10-18T19:49:30.797Z,85.31
2022-10-18T19:51:57.354Z,85.67
2022-10-18T19:54:24.499Z,85.73
2022-10-18T19:56:50.870Z,85.20
2022-10-18T19:59:17.748Z,85.49
2022-10-18T20:01:45.011Z,85.62
2022-10-18T20:04:12.424Z,85.60
2022-10-18T20:06:39.464Z,85.86
2022-10-18T20:09:07.286Z,85.39
2022-10-18T20:11:34.237Z,85.43
2022-10-18T20:14:00.730Z,85.71
2022-10-18T20:16:30.656Z,85.73
2022-10-18T20:19:01.475Z,86.74
2022-10-18T20:21:29.184Z,86.28
2022-10-18T20:23:55.882Z,85.84
2022-10-18T20:26:23.354Z,86.01
2022-10-18T20:28:56.574Z,86.02
2022-10-18T20:31:24.973Z,86.01
2022-10-18T20:33:57.142Z,86.07
2022-10-18T20:36:23.604Z,85.93
2022-10-18T20:38:50.061Z,86.22
2022-10-18T20:41:19.975Z,86.15
2022-10-18T20:43:53.568Z,86.36
2022-10-18T20:46:20.708Z,86.20
2022-10-18T20:48:47.217Z,85.91
2022-10-18T20:51:13.644Z,86.26
2022-10-18T20:53:40.752Z,86.17
2022-10-18T20:56:08.428Z,86.07
2022-10-18T20:58:35.967Z,86.32
2022-10-18T21:01:07.308Z,85.97
2022-10-18T21:03:36.514Z,85.94
2022-10-18T21:06:09.108Z,86.13
2022-10-18T21:08:35.513Z,85.80
2022-10-18T21:11:01.936Z,85.94
2022-10-18T21:13:28.324Z,86.29
2022-10-18T21:15:56.417Z,86.25
2022-10-18T21:18:24.911Z,86.51
2022-10-18T21:20:54.571Z,86.38
2022-10-18T21:23:21.545Z,86.33
2022-10-18T21:25:49.005Z,86.47
2022-10-18T21:28:16.487Z,86.53
2022-10-18T21:30:42.879Z,86.43
2022-10-18T21:33:09.302Z,86.77
2022-10-18T21:35:36.627Z,86.55
2022-10-18T21:38:04.187Z,86.92
2022-10-18T21:40:31.275Z,86.90
2022-10-18T21:42:57.778Z,86.67
2022-10-18T21:45:24.146Z,86.49
2022-10-18T21:47:50.554Z,86.85
2022-10-18T21:50:16.936Z,86.99
2022-10-18T21:52:43.323Z,87.03
2022-10-18T21:55:10.097Z,86.66
2022-10-18T22:00:05.544Z,86.52
2022-10-18T22:02:32.154Z,86.76
2022-10-18T22:04:58.747Z,86.69
2022-10-18T22:07:25.133Z,86.39
2022-10-18T22:09:51.489Z,86.27
2022-10-18T22:12:17.868Z,86.37
2022-10-18T22:14:44.241Z,86.88
2022-10-18T22:17:10.618Z,86.74
2022-10-18T22:19:37.145Z,87.22
2022-10-18T22:22:03.608Z,87.22
2022-10-18T22:24:30.109Z,87.51
2022-10-18T22:26:56.513Z,87.47
2022-10-18T22:29:22.881Z,87.26
2022-10-18T22:31:52.834Z,87.58
2022-10-18T22:34:23.228Z,88.53
2022-10-18T22:36:49.873Z,88.55
2022-10-18T22:39:16.900Z,88.13
2022-10-18T22:41:43.762Z,88.21
2022-10-18T22:44:14.176Z,88.29
2022-10-18T22:46:41.502Z,88.28
2022-10-18T22:49:08.105Z,87.98
2022-10-18T22:54:02.362Z,87.88
2022-10-18T22:56:28.778Z,87.91
2022-10-18T22:58:55.321Z,88.28
2022-10-18T23:01:23.474Z,88.34
2022-10-18T23:03:58.095Z,88.04
2022-10-18T23:06:26.425Z,88.22
2022-10-18T23:08:53.858Z,88.19
2022-10-18T23:11:20.525Z,88.28
2022-10-18T23:13:47.356Z,88.34
2022-10-18T23:16:14.173Z,88.65
2022-10-18T23:18:40.594Z,88.43
2022-10-18T23:21:11.889Z,88.55
2022-10-18T23:23:40.005Z,88.28
2022-10-18T23:26:10.249Z,88.19
2022-10-18T23:28:37.733Z,87.96
2022-10-18T23:31:08.119Z,87.55
2022-10-18T23:33:34.569Z,87.82
2022-10-18T23:36:01.666Z,88.24
2022-10-18T23:38:29.861Z,88.29
2022-10-18T23:40:56.445Z,88.54
2022-10-18T23:43:22.839Z,88.51
2022-10-18T23:45:49.224Z,88.30
2022-10-18T23:48:15.638Z,88.50
2022-10-18T23:50:42.793Z,88.60
2022-10-18T23:53:09.612Z,88.35
2022-10-18T23:55:36.069Z,88.24
2022-10-18T23:58:02.508Z,87.92
